createdAt,value
2023-01-09T00:00:45.370Z,0.00
2023-01-09T00:01:46.533Z,0.02
2023-01-09T00:02:46.017Z,0.02
2023-01-09T00:03:45.214Z,0.02
2023-01-09T00:04:45.546Z,0.01
2023-01-09T00:05:46.725Z,0.02
2023-01-09T00:06:45.223Z,0.00
2023-01-09T00:07:45.312Z,0.02
2023-01-09T00:08:45.619Z,0.02
2023-01-09T00:09:46.231Z,0.00
2023-01-09T00:10:45.187Z,0.02
2023-01-09T00:11:46.457Z,0.02
2023-01-09T00:12:45.794Z,0.01
2023-01-09T00:13:45.059Z,0.02
2023-01-09T00:14:45.401Z,0.02
2023-01-09T00:15:45.727Z,0.01
2023-01-09T00:16:44.948Z,0.06
2023-01-09T00:17:45.236Z,0.02
2023-01-09T00:18:45.531Z,0.01
2023-01-09T00:19:44.786Z,0.00
2023-01-09T00:20:45.268Z,0.04
2023-01-09T00:21:45.405Z,0.02
2023-01-09T00:22:45.685Z,0.06
2023-01-09T00:23:44.938Z,0.00
2023-01-09T00:24:45.210Z,0.00
2023-01-09T00:25:45.497Z,0.02
2023-01-09T00:26:45.728Z,0.02
2023-01-09T00:27:45.206Z,0.00
2023-01-09T00:28:45.376Z,0.02
2023-01-09T00:29:44.657Z,0.01
2023-01-09T00:30:44.969Z,0.00
2023-01-09T00:31:45.225Z,0.02
2023-01-09T00:32:45.610Z,0.00
2023-01-09T00:33:44.794Z,0.02
2023-01-09T00:34:46.049Z,0.00
2023-01-09T00:35:46.407Z,0.02
2023-01-09T00:36:44.675Z,0.02
2023-01-09T00:37:44.951Z,0.00
2023-01-09T00:38:45.591Z,0.00
2023-01-09T00:39:45.584Z,0.02
2023-01-09T00:40:44.824Z,0.00
2023-01-09T00:41:45.089Z,0.02
2023-01-09T00:42:46.544Z,0.02
2023-01-09T00:43:44.694Z,0.00
2023-01-09T00:44:44.984Z,0.02
2023-01-09T00:45:45.291Z,0.02
2023-01-09T00:46:44.462Z,0.02
2023-01-09T00:47:45.700Z,0.00
2023-01-09T00:48:45.072Z,0.06
2023-01-09T00:49:44.506Z,0.02
2023-01-09T00:50:45.736Z,0.02
2023-01-09T00:51:45.082Z,0.01
2023-01-09T00:52:44.355Z,0.02
2023-01-09T00:53:44.711Z,0.00
2023-01-09T00:54:44.974Z,0.00
2023-01-09T00:55:46.218Z,0.00
2023-01-09T00:56:44.504Z,0.02
2023-01-09T00:57:45.734Z,0.00
2023-01-09T00:58:45.131Z,0.02
2023-01-09T00:59:44.375Z,0.00
2023-01-09T01:00:45.585Z,0.02
2023-01-09T01:01:46.133Z,0.00
2023-01-09T01:02:45.263Z,0.00
2023-01-09T01:03:44.465Z,0.00
2023-01-09T01:04:44.783Z,0.01
2023-01-09T01:05:45.047Z,0.00
2023-01-09T01:06:44.351Z,0.02
2023-01-09T01:07:44.615Z,0.00
2023-01-09T01:08:44.891Z,0.02
2023-01-09T01:09:44.121Z,0.02
2023-01-09T01:10:44.409Z,0.00
2023-01-09T01:11:44.689Z,0.00
2023-01-09T01:12:45.909Z,0.00
2023-01-09T01:13:44.259Z,0.02
2023-01-09T01:14:44.578Z,0.00
2023-01-09T01:15:45.803Z,0.02
2023-01-09T01:16:45.121Z,0.00
2023-01-09T01:17:44.410Z,0.02
2023-01-09T01:18:45.651Z,0.01
2023-01-09T01:19:45.014Z,0.02
2023-01-09T01:20:44.226Z,0.00
2023-01-09T01:21:44.544Z,0.02
2023-01-09T01:22:45.786Z,0.02
2023-01-09T01:23:44.059Z,0.00
2023-01-09T01:24:44.363Z,0.02
2023-01-09T01:25:44.838Z,0.00
2023-01-09T01:26:43.887Z,0.00
2023-01-09T01:27:45.123Z,0.01
2023-01-09T01:28:44.472Z,0.00
2023-01-09T01:29:44.764Z,0.02
2023-01-09T01:30:44.008Z,0.02
2023-01-09T01:31:44.504Z,0.02
2023-01-09T01:32:44.580Z,0.00
2023-01-09T01:33:44.780Z,0.00
2023-01-09T01:34:47.457Z,0.02
2023-01-09T01:35:45.395Z,0.00
2023-01-09T01:36:44.817Z,0.00
2023-01-09T01:37:44.966Z,0.02
2023-01-09T01:38:45.237Z,0.00
2023-01-09T01:39:45.557Z,0.01
2023-01-09T01:40:43.849Z,0.02
2023-01-09T01:41:45.114Z,0.00
2023-01-09T01:42:44.530Z,0.02
2023-01-09T01:43:43.714Z,0.00
2023-01-09T01:44:44.990Z,0.01
2023-01-09T01:45:44.331Z,0.00
2023-01-09T01:46:45.589Z,0.02
2023-01-09T01:47:44.820Z,0.00
2023-01-09T01:48:44.287Z,0.02
2023-01-09T01:49:45.412Z,0.00
2023-01-09T01:50:43.748Z,0.05
2023-01-09T01:51:43.991Z,0.01
2023-01-09T01:52:45.286Z,0.00
2023-01-09T01:53:44.490Z,0.00
2023-01-09T01:54:43.978Z,0.02
2023-01-09T01:55:45.057Z,0.02
2023-01-09T01:56:45.362Z,0.00
2023-01-09T01:57:44.600Z,0.00
2023-01-09T01:58:44.889Z,0.00
2023-01-09T01:59:44.249Z,0.00
2023-01-09T02:00:43.462Z,0.00
2023-01-09T02:01:43.961Z,0.05
2023-01-09T02:02:45.005Z,0.00
2023-01-09T02:03:45.259Z,0.00
2023-01-09T02:04:43.618Z,0.02
2023-01-09T02:05:43.872Z,0.00
2023-01-09T02:06:45.100Z,0.00
2023-01-09T02:07:43.410Z,0.00
2023-01-09T02:08:43.728Z,0.02
2023-01-09T02:09:44.028Z,0.00
2023-01-09T02:10:44.309Z,0.00
2023-01-09T02:11:44.529Z,0.00
2023-01-09T02:12:43.848Z,0.00
2023-01-09T02:13:44.170Z,0.00
2023-01-09T02:14:43.425Z,0.05
2023-01-09T02:15:43.775Z,0.00
2023-01-09T02:16:45.000Z,0.01
2023-01-09T02:17:44.279Z,0.00
2023-01-09T02:18:44.559Z,0.02
2023-01-09T02:19:44.890Z,0.02
2023-01-09T02:20:44.143Z,0.02
2023-01-09T02:21:44.043Z,0.00
2023-01-09T02:22:44.787Z,0.02
2023-01-09T02:23:44.152Z,0.02
2023-01-09T02:24:43.389Z,0.00
2023-01-09T02:25:44.628Z,0.00
2023-01-09T02:26:43.959Z,0.02
2023-01-09T02:27:43.309Z,0.00
2023-01-09T02:28:43.494Z,0.00
2023-01-09T02:29:44.750Z,0.00
2023-01-09T02:30:45.009Z,0.00
2023-01-09T02:31:43.331Z,0.00
2023-01-09T02:32:43.711Z,0.00
2023-01-09T02:33:44.875Z,0.00
2023-01-09T02:34:44.230Z,0.00
2023-01-09T02:35:44.448Z,0.00
2023-01-09T02:36:44.754Z,0.02
2023-01-09T02:37:44.032Z,0.00
2023-01-09T02:38:43.478Z,0.00
2023-01-09T02:39:44.648Z,0.05
2023-01-09T02:40:43.879Z,0.05
2023-01-09T02:41:44.185Z,0.00
2023-01-09T02:42:43.539Z,0.02
2023-01-09T02:43:43.854Z,0.00
2023-01-09T02:44:43.100Z,0.02
2023-01-09T02:45:44.358Z,0.00
2023-01-09T02:46:44.614Z,0.05
2023-01-09T02:47:42.918Z,0.00
2023-01-09T02:48:43.194Z,0.00
2023-01-09T02:49:43.719Z,0.00
2023-01-09T02:50:44.758Z,0.02
2023-01-09T02:51:43.985Z,0.00
2023-01-09T02:52:44.318Z,0.00
2023-01-09T02:53:44.625Z,0.00
2023-01-09T02:54:43.859Z,0.00
2023-01-09T02:55:43.242Z,0.05
2023-01-09T02:56:44.483Z,0.00
2023-01-09T02:57:43.731Z,0.00
2023-01-09T02:58:44.039Z,0.00
2023-01-09T02:59:43.357Z,0.05
2023-01-09T03:00:43.755Z,0.00
2023-01-09T03:01:43.055Z,0.00
2023-01-09T03:02:43.273Z,0.07
2023-01-09T03:03:44.510Z,0.00
2023-01-09T03:04:42.793Z,0.00
2023-01-09T03:05:43.143Z,0.02
2023-01-09T03:06:43.482Z,0.00
2023-01-09T03:07:43.683Z,0.02
2023-01-09T03:08:44.019Z,0.00
2023-01-09T03:09:46.472Z,0.02
2023-01-09T03:10:43.609Z,0.00
2023-01-09T03:11:43.915Z,0.05
2023-01-09T03:12:43.429Z,0.00
2023-01-09T03:13:42.560Z,0.00
2023-01-09T03:14:42.894Z,0.02
2023-01-09T03:15:43.179Z,0.00
2023-01-09T03:16:43.415Z,0.00
2023-01-09T03:17:43.742Z,0.02
2023-01-09T03:18:43.130Z,0.00
2023-01-09T03:19:44.356Z,0.02
2023-01-09T03:20:43.662Z,0.00
2023-01-09T03:21:43.880Z,0.00
2023-01-09T03:22:43.295Z,0.02
2023-01-09T03:23:42.535Z,0.02
2023-01-09T03:24:43.819Z,0.00
2023-01-09T03:25:43.174Z,0.02
2023-01-09T03:26:43.374Z,0.01
2023-01-09T03:27:43.660Z,0.02
2023-01-09T03:28:43.075Z,0.05
2023-01-09T03:29:44.259Z,0.00
2023-01-09T03:30:43.529Z,0.00
2023-01-09T03:31:43.870Z,0.00
2023-01-09T03:32:44.139Z,0.00
2023-01-09T03:33:43.382Z,0.00
2023-01-09T03:34:44.077Z,0.00
2023-01-09T03:35:43.952Z,0.00
2023-01-09T03:36:43.180Z,0.00
2023-01-09T03:37:42.561Z,0.00
2023-01-09T03:38:42.850Z,0.00
2023-01-09T03:39:44.075Z,0.00
2023-01-09T03:40:43.325Z,0.00
2023-01-09T03:41:43.575Z,0.00
2023-01-09T03:42:42.916Z,0.00
2023-01-09T03:43:42.186Z,0.00
2023-01-09T03:44:43.475Z,0.00
2023-01-09T03:45:43.726Z,0.00
2023-01-09T03:46:43.026Z,0.00
2023-01-09T03:47:43.276Z,0.00
2023-01-09T03:48:43.667Z,0.05
2023-01-09T03:49:42.922Z,0.02
2023-01-09T03:50:43.080Z,0.02
2023-01-09T03:51:43.411Z,0.02
2023-01-09T03:52:43.680Z,0.00
2023-01-09T03:53:43.015Z,0.02
2023-01-09T03:54:43.275Z,0.00
2023-01-09T03:55:42.607Z,0.00
2023-01-09T03:56:42.877Z,0.00
2023-01-09T03:57:43.060Z,0.00
2023-01-09T03:58:43.365Z,0.00
2023-01-09T03:59:43.669Z,0.01
2023-01-09T04:00:41.984Z,0.00
2023-01-09T04:01:43.424Z,0.00
2023-01-09T04:02:43.576Z,0.00
2023-01-09T04:03:42.865Z,0.00
2023-01-09T04:04:43.187Z,0.00
2023-01-09T04:05:43.447Z,0.00
2023-01-09T04:06:42.841Z,0.00
2023-01-09T04:08:43.328Z,0.00
2023-01-09T04:09:42.662Z,0.01
2023-01-09T04:10:42.882Z,0.00
2023-01-09T04:11:43.216Z,0.00
2023-01-09T04:12:42.592Z,0.01
2023-01-09T04:13:41.808Z,0.00
2023-01-09T04:14:43.097Z,0.05
2023-01-09T04:15:42.435Z,0.00
2023-01-09T04:16:41.782Z,0.01
2023-01-09T04:17:42.089Z,0.00
2023-01-09T04:18:42.431Z,0.00
2023-01-09T04:19:42.603Z,0.02
2023-01-09T04:20:41.918Z,0.00
2023-01-09T04:21:43.145Z,0.00
2023-01-09T04:22:42.516Z,0.00
2023-01-09T04:23:42.710Z,0.02
2023-01-09T04:24:43.253Z,0.02
2023-01-09T04:25:43.333Z,0.00
2023-01-09T04:26:41.647Z,0.00
2023-01-09T04:27:42.923Z,0.00
2023-01-09T04:28:43.202Z,0.02
2023-01-09T04:29:41.546Z,0.02
2023-01-09T04:30:41.841Z,0.00
2023-01-09T04:31:43.161Z,0.00
2023-01-09T04:32:42.422Z,0.00
2023-01-09T04:33:41.689Z,0.02
2023-01-09T04:34:42.982Z,0.02
2023-01-09T04:35:43.250Z,0.02
2023-01-09T04:36:42.642Z,0.02
2023-01-09T04:37:42.794Z,0.02
2023-01-09T04:38:43.108Z,0.02
2023-01-09T04:39:42.367Z,0.01
2023-01-09T04:40:42.672Z,0.01
2023-01-09T04:41:43.031Z,0.02
2023-01-09T04:42:43.265Z,0.02
2023-01-09T04:43:42.541Z,0.02
2023-01-09T04:44:42.856Z,0.01
2023-01-09T04:45:43.205Z,0.02
2023-01-09T04:46:42.400Z,0.02
2023-01-09T04:47:42.764Z,0.02
2023-01-09T04:48:42.066Z,0.01
2023-01-09T04:49:41.406Z,0.00
2023-01-09T04:50:42.643Z,0.00
2023-01-09T04:51:42.004Z,0.00
2023-01-09T04:52:42.222Z,0.02
2023-01-09T04:53:41.666Z,0.02
2023-01-09T04:54:41.907Z,0.01
2023-01-09T04:55:41.242Z,0.00
2023-01-09T04:56:42.501Z,0.00
2023-01-09T04:57:42.766Z,0.02
2023-01-09T04:58:44.397Z,0.00
2023-01-09T04:59:42.372Z,0.02
2023-01-09T05:00:41.736Z,0.01
2023-01-09T05:01:42.209Z,0.00
2023-01-09T05:02:42.306Z,0.00
2023-01-09T05:03:42.637Z,0.02
2023-01-09T05:04:43.028Z,0.02
2023-01-09T05:05:41.427Z,0.01
2023-01-09T05:06:42.729Z,0.02
2023-01-09T05:07:42.902Z,0.02
2023-01-09T05:08:42.191Z,0.00
2023-01-09T05:09:42.508Z,0.02
2023-01-09T05:10:42.977Z,0.02
2023-01-09T05:11:41.156Z,0.02
2023-01-09T05:12:42.400Z,0.01
2023-01-09T05:13:41.837Z,0.02
2023-01-09T05:14:42.015Z,0.01
2023-01-09T05:15:42.351Z,0.07
2023-01-09T05:16:42.784Z,0.02
2023-01-09T05:17:41.942Z,0.02
2023-01-09T05:18:41.406Z,0.00
2023-01-09T05:19:42.618Z,0.02
2023-01-09T05:21:42.271Z,0.02
2023-01-09T05:22:42.598Z,0.02
2023-01-09T05:23:41.831Z,0.02
2023-01-09T05:24:42.237Z,0.00
2023-01-09T05:25:42.447Z,0.00
2023-01-09T05:26:40.803Z,0.02
2023-01-09T05:27:41.135Z,0.02
2023-01-09T05:28:42.513Z,0.02
2023-01-09T05:29:41.717Z,0.02
2023-01-09T05:30:41.779Z,0.02
2023-01-09T05:31:42.203Z,0.01
2023-01-09T05:32:42.477Z,0.02
2023-01-09T05:33:41.780Z,0.00
2023-01-09T05:34:42.213Z,0.02
2023-01-09T05:35:42.509Z,0.02
2023-01-09T05:36:40.885Z,0.02
2023-01-09T05:37:42.160Z,0.02
2023-01-09T05:38:42.558Z,0.01
2023-01-09T05:39:41.848Z,0.01
2023-01-09T05:40:42.533Z,0.00
2023-01-09T05:41:42.511Z,0.02
2023-01-09T05:42:40.870Z,0.01
2023-01-09T05:43:41.216Z,0.01
2023-01-09T05:44:42.535Z,0.01
2023-01-09T05:45:41.913Z,0.07
2023-01-09T05:46:42.310Z,0.02
2023-01-09T05:47:40.628Z,0.01
2023-01-09T05:48:41.946Z,0.02
2023-01-09T05:49:42.321Z,0.01
2023-01-09T05:50:41.658Z,0.02
2023-01-09T05:51:42.045Z,0.01
2023-01-09T05:52:42.930Z,0.02
2023-01-09T05:53:40.776Z,0.01
2023-01-09T05:54:41.269Z,0.01
2023-01-09T05:55:40.474Z,0.02
2023-01-09T05:56:41.776Z,0.00
2023-01-09T05:57:42.131Z,0.01
2023-01-09T05:58:41.441Z,0.02
2023-01-09T05:59:40.815Z,0.02
2023-01-09T06:00:41.208Z,0.02
2023-01-09T06:01:41.489Z,0.00
2023-01-09T06:02:40.979Z,0.07
2023-01-09T06:03:41.210Z,0.02
2023-01-09T06:04:40.544Z,0.02
2023-01-09T06:05:41.796Z,0.02
2023-01-09T06:06:41.245Z,0.02
2023-01-09T06:07:40.546Z,0.02
2023-01-09T06:08:40.855Z,0.02
2023-01-09T06:09:41.202Z,0.01
2023-01-09T06:10:40.514Z,0.01
2023-01-09T06:11:40.873Z,0.02
2023-01-09T06:12:40.205Z,0.02
2023-01-09T06:13:40.544Z,0.02
2023-01-09T06:14:41.937Z,0.01
2023-01-09T06:15:41.269Z,0.01
2023-01-09T06:16:40.580Z,0.01
2023-01-09T06:17:41.876Z,0.01
2023-01-09T06:18:40.255Z,0.02
2023-01-09T06:19:41.573Z,0.02
2023-01-09T06:20:42.056Z,0.02
2023-01-09T06:21:41.285Z,0.00
2023-01-09T06:22:41.548Z,0.02
2023-01-09T06:23:41.097Z,0.02
2023-01-09T06:24:41.356Z,0.00
2023-01-09T06:25:41.077Z,0.02
2023-01-09T06:26:40.310Z,0.02
2023-01-09T06:27:40.415Z,0.02
2023-01-09T06:28:40.745Z,0.02
2023-01-09T06:29:40.086Z,0.02
2023-01-09T06:30:40.435Z,0.02
2023-01-09T06:31:41.010Z,0.02
2023-01-09T06:32:42.131Z,0.14
2023-01-09T06:33:40.497Z,0.02
2023-01-09T06:34:40.875Z,0.02
2023-01-09T06:35:40.146Z,0.02
2023-01-09T06:36:41.522Z,0.02
2023-01-09T06:37:40.954Z,0.01
2023-01-09T06:38:40.251Z,0.07
2023-01-09T06:39:41.545Z,0.02
2023-01-09T06:40:40.847Z,0.02
2023-01-09T06:41:40.265Z,0.01
2023-01-09T06:42:41.907Z,0.01
2023-01-09T06:43:39.940Z,0.01
2023-01-09T06:44:41.224Z,0.01
2023-01-09T06:45:41.535Z,0.05
2023-01-09T06:46:39.883Z,0.05
2023-01-09T06:47:41.190Z,0.03
2023-01-09T06:48:41.576Z,0.03
2023-01-09T06:49:40.820Z,0.02
2023-01-09T06:50:40.187Z,0.03
2023-01-09T06:51:41.435Z,0.02
2023-01-09T06:52:39.785Z,0.03
2023-01-09T06:53:41.043Z,0.12
2023-01-09T06:54:41.425Z,0.04
2023-01-09T06:55:39.679Z,0.15
2023-01-09T06:56:40.981Z,0.05
2023-01-09T06:57:41.290Z,0.05
2023-01-09T06:58:39.619Z,0.12
2023-01-09T06:59:40.915Z,0.19
2023-01-09T07:00:40.431Z,0.13
2023-01-09T07:01:39.634Z,0.11
2023-01-09T07:02:40.691Z,0.36
2023-01-09T07:03:41.086Z,0.17
2023-01-09T07:04:41.436Z,0.21
2023-01-09T07:05:39.706Z,0.25
2023-01-09T07:06:41.094Z,0.29
2023-01-09T07:07:40.386Z,0.37
2023-01-09T07:08:39.846Z,0.45
2023-01-09T07:09:39.947Z,0.57
2023-01-09T07:10:40.232Z,0.70
2023-01-09T07:11:39.502Z,0.83
2023-01-09T07:12:40.750Z,1.02
2023-01-09T07:13:40.146Z,1.21
2023-01-09T07:14:39.416Z,1.40
2023-01-09T07:15:39.759Z,1.58
2023-01-09T07:16:41.066Z,1.89
2023-01-09T07:17:39.342Z,2.16
2023-01-09T07:18:39.796Z,2.37
2023-01-09T07:19:40.914Z,2.60
2023-01-09T07:20:40.268Z,2.88
2023-01-09T07:21:39.551Z,3.11
2023-01-09T07:22:39.825Z,3.30
2023-01-09T07:23:40.371Z,3.46
2023-01-09T07:24:39.421Z,3.74
2023-01-09T07:25:39.695Z,4.31
2023-01-09T07:26:41.043Z,4.98
2023-01-09T07:27:39.291Z,5.71
2023-01-09T07:28:39.613Z,6.38
2023-01-09T07:29:40.919Z,6.99
2023-01-09T07:30:39.179Z,7.26
2023-01-09T07:31:39.577Z,7.45
2023-01-09T07:32:39.775Z,7.74
2023-01-09T07:33:41.265Z,8.44
2023-01-09T07:34:39.350Z,9.18
2023-01-09T07:35:39.617Z,9.54
2023-01-09T07:36:40.883Z,9.89
2023-01-09T07:37:39.156Z,10.35
2023-01-09T07:38:39.490Z,10.84
2023-01-09T07:39:39.960Z,11.34
2023-01-09T07:40:39.021Z,11.88
2023-01-09T07:41:39.317Z,12.99
2023-01-09T07:42:39.586Z,14.49
2023-01-09T07:43:40.761Z,15.79
2023-01-09T07:44:39.138Z,17.06
2023-01-09T07:45:39.877Z,19.31
2023-01-09T07:46:39.848Z,22.76
2023-01-09T07:47:39.009Z,26.08
2023-01-09T07:48:40.263Z,29.80
2023-01-09T07:49:39.581Z,34.59
2023-01-09T07:50:38.822Z,36.07
2023-01-09T07:51:39.214Z,42.10
2023-01-09T07:52:39.451Z,51.13
2023-01-09T07:53:39.800Z,64.23
2023-01-09T07:54:39.011Z,78.10
2023-01-09T07:55:40.273Z,89.62
2023-01-09T07:56:39.699Z,97.05
2023-01-09T07:57:38.882Z,101.73
2023-01-09T07:58:39.258Z,103.11
2023-01-09T07:59:39.527Z,109.77
2023-01-09T08:00:38.752Z,112.64
2023-01-09T08:01:39.205Z,113.10
2023-01-09T08:02:39.515Z,106.07
2023-01-09T08:03:39.661Z,97.04
2023-01-09T08:04:38.898Z,120.95
2023-01-09T08:05:39.286Z,131.77
2023-01-09T08:06:39.526Z,109.15
2023-01-09T08:07:39.807Z,111.26
2023-01-09T08:08:39.105Z,128.81
2023-01-09T08:09:39.341Z,115.69
2023-01-09T08:10:38.607Z,119.06
2023-01-09T08:11:38.913Z,124.53
2023-01-09T08:12:39.178Z,135.30
2023-01-09T08:13:39.586Z,143.95
2023-01-09T08:14:38.781Z,146.97
2023-01-09T08:15:39.058Z,152.00
2023-01-09T08:16:39.311Z,157.36
2023-01-09T08:17:38.561Z,162.10
2023-01-09T08:18:39.831Z,166.29
2023-01-09T08:19:39.188Z,173.26
2023-01-09T08:20:39.406Z,132.47
2023-01-09T08:21:38.577Z,192.80
2023-01-09T08:22:38.858Z,176.73
2023-01-09T08:23:39.118Z,222.40
2023-01-09T08:24:39.469Z,230.80
2023-01-09T08:25:38.650Z,212.64
2023-01-09T08:26:38.939Z,194.37
2023-01-09T08:27:39.238Z,223.30
2023-01-09T08:28:38.451Z,233.80
2023-01-09T08:29:38.751Z,220.76
2023-01-09T08:30:39.112Z,130.67
2023-01-09T08:31:38.438Z,201.07
2023-01-09T08:32:38.707Z,142.33
2023-01-09T08:33:40.628Z,90.29
2023-01-09T08:34:39.312Z,96.19
2023-01-09T08:35:38.518Z,99.24
2023-01-09T08:36:39.143Z,99.07
2023-01-09T08:37:39.040Z,98.77
2023-01-09T08:38:38.277Z,97.00
2023-01-09T08:39:38.544Z,97.60
2023-01-09T08:40:39.805Z,100.93
2023-01-09T08:41:39.076Z,110.27
2023-01-09T08:42:39.391Z,110.67
2023-01-09T08:43:38.601Z,119.27
2023-01-09T08:44:38.870Z,129.37
2023-01-09T08:45:38.132Z,142.11
2023-01-09T08:46:38.454Z,152.76
2023-01-09T08:47:38.681Z,162.81
2023-01-09T08:48:39.344Z,166.57
2023-01-09T08:49:38.252Z,174.10
2023-01-09T08:50:39.565Z,154.88
2023-01-09T08:51:38.887Z,161.65
2023-01-09T08:52:39.041Z,160.19
2023-01-09T08:53:39.375Z,171.14
2023-01-09T08:54:38.765Z,196.84
2023-01-09T08:55:38.988Z,219.26
2023-01-09T08:56:38.253Z,242.34
2023-01-09T08:57:38.596Z,253.41
2023-01-09T08:58:38.843Z,287.48
2023-01-09T08:59:38.118Z,318.64
2023-01-09T09:00:38.447Z,333.57
2023-01-09T09:01:38.705Z,339.30
2023-01-09T09:02:37.969Z,341.72
2023-01-09T09:03:38.240Z,335.58
2023-01-09T09:04:38.503Z,311.64
2023-01-09T09:05:38.802Z,295.55
2023-01-09T09:06:38.032Z,298.75
2023-01-09T09:07:38.312Z,303.10
2023-01-09T09:08:38.594Z,288.65
2023-01-09T09:09:37.831Z,284.76
2023-01-09T09:10:39.101Z,308.42
2023-01-09T09:11:38.522Z,325.14
2023-01-09T09:12:39.729Z,321.68
2023-01-09T09:13:38.958Z,318.00
2023-01-09T09:14:38.278Z,302.89
2023-01-09T09:15:39.620Z,306.88
2023-01-09T09:16:38.783Z,317.64
2023-01-09T09:17:38.281Z,335.55
2023-01-09T09:18:39.413Z,335.07
2023-01-09T09:19:38.782Z,316.21
2023-01-09T09:20:38.030Z,299.75
2023-01-09T09:21:38.328Z,276.62
2023-01-09T09:22:38.699Z,265.98
2023-01-09T09:23:37.904Z,274.10
2023-01-09T09:24:38.197Z,299.58
2023-01-09T09:25:38.713Z,316.44
2023-01-09T09:26:38.966Z,391.69
2023-01-09T09:27:38.108Z,347.45
2023-01-09T09:28:38.429Z,344.32
2023-01-09T09:29:38.575Z,342.57
2023-01-09T09:30:38.762Z,338.43
2023-01-09T09:31:38.187Z,336.27
2023-01-09T09:32:39.324Z,342.14
2023-01-09T09:33:37.719Z,350.34
2023-01-09T09:34:37.896Z,359.57
2023-01-09T09:35:39.140Z,366.30
2023-01-09T09:36:39.482Z,335.05
2023-01-09T09:37:38.649Z,274.10
2023-01-09T09:38:38.056Z,239.26
2023-01-09T09:39:38.271Z,242.11
2023-01-09T09:40:37.511Z,262.64
2023-01-09T09:41:37.757Z,245.65
2023-01-09T09:42:38.002Z,212.22
2023-01-09T09:43:38.261Z,202.69
2023-01-09T09:44:37.601Z,199.40
2023-01-09T09:45:38.726Z,190.26
2023-01-09T09:46:38.102Z,161.21
2023-01-09T09:47:38.346Z,157.65
2023-01-09T09:48:37.582Z,183.80
2023-01-09T09:49:37.875Z,193.00
2023-01-09T09:50:38.130Z,190.81
2023-01-09T09:51:37.339Z,179.00
2023-01-09T09:52:37.561Z,144.00
2023-01-09T09:53:37.811Z,161.68
2023-01-09T09:54:38.102Z,144.55
2023-01-09T09:55:37.383Z,144.83
2023-01-09T09:56:37.543Z,161.15
2023-01-09T09:57:37.800Z,176.88
2023-01-09T09:58:39.068Z,193.01
2023-01-09T09:59:37.326Z,192.17
2023-01-09T10:00:37.575Z,180.94
2023-01-09T10:01:37.817Z,169.53
2023-01-09T10:02:38.118Z,169.03
2023-01-09T10:03:37.316Z,173.17
2023-01-09T10:04:37.565Z,185.65
2023-01-09T10:05:37.883Z,192.90
2023-01-09T10:06:37.041Z,190.68
2023-01-09T10:07:39.876Z,206.91
2023-01-09T10:08:38.627Z,200.29
2023-01-09T10:09:37.922Z,179.45
2023-01-09T10:10:37.145Z,165.15
2023-01-09T10:11:37.477Z,168.18
2023-01-09T10:12:37.689Z,167.65
2023-01-09T10:13:37.933Z,153.85
2023-01-09T10:14:37.201Z,148.07
2023-01-09T10:15:38.573Z,157.43
2023-01-09T10:16:37.750Z,179.09
2023-01-09T10:17:36.987Z,189.33
2023-01-09T10:18:37.298Z,193.86
2023-01-09T10:19:37.550Z,230.44
2023-01-09T10:20:37.811Z,246.91
2023-01-09T10:21:37.141Z,257.82
2023-01-09T10:22:38.031Z,276.05
2023-01-09T10:23:37.623Z,267.63
2023-01-09T10:24:36.850Z,266.50
2023-01-09T10:25:37.178Z,282.95
2023-01-09T10:26:37.458Z,307.54
2023-01-09T10:27:37.742Z,315.51
2023-01-09T10:28:36.962Z,297.00
2023-01-09T10:29:37.247Z,289.98
2023-01-09T10:30:37.759Z,282.04
2023-01-09T10:31:36.828Z,307.53
2023-01-09T10:32:36.842Z,404.92
2023-01-09T10:33:37.184Z,432.07
2023-01-09T10:34:37.377Z,605.04
2023-01-09T10:35:47.366Z,537.25
2023-01-09T10:36:37.901Z,299.42
2023-01-09T10:37:36.782Z,524.66
2023-01-09T10:38:37.009Z,568.67
2023-01-09T10:39:37.741Z,387.26
2023-01-09T10:40:37.536Z,274.12
2023-01-09T10:41:36.781Z,234.53
2023-01-09T10:42:37.027Z,222.49
2023-01-09T10:43:37.291Z,201.27
2023-01-09T10:44:37.791Z,184.18
2023-01-09T10:45:36.772Z,179.86
2023-01-09T10:46:37.645Z,185.77
2023-01-09T10:47:37.351Z,179.61
2023-01-09T10:48:36.582Z,196.43
2023-01-09T10:49:36.872Z,228.52
2023-01-09T10:50:37.456Z,249.84
2023-01-09T10:51:37.402Z,245.28
2023-01-09T10:52:36.639Z,196.93
2023-01-09T10:53:36.927Z,188.21
2023-01-09T10:54:37.179Z,171.18
2023-01-09T10:55:36.430Z,149.87
2023-01-09T10:56:36.711Z,147.41
2023-01-09T10:57:37.901Z,131.59
2023-01-09T10:58:38.212Z,117.44
2023-01-09T10:59:36.502Z,115.47
2023-01-09T11:00:36.817Z,122.83
2023-01-09T11:01:37.096Z,138.14
2023-01-09T11:02:36.362Z,141.08
2023-01-09T11:03:37.624Z,142.80
2023-01-09T11:04:37.876Z,144.73
2023-01-09T11:05:38.165Z,140.89
2023-01-09T11:06:37.377Z,134.37
2023-01-09T11:07:36.748Z,134.39
2023-01-09T11:08:37.937Z,161.79
2023-01-09T11:09:37.158Z,178.82
2023-01-09T11:10:37.465Z,214.26
2023-01-09T11:11:36.770Z,241.54
2023-01-09T11:12:37.920Z,245.33
2023-01-09T11:13:36.299Z,236.15
2023-01-09T11:14:36.542Z,198.94
2023-01-09T11:15:36.859Z,160.94
2023-01-09T11:16:37.097Z,158.03
2023-01-09T11:17:36.356Z,178.55
2023-01-09T11:18:36.747Z,169.72
2023-01-09T11:19:36.915Z,170.50
2023-01-09T11:20:36.154Z,172.67
2023-01-09T11:21:36.472Z,164.24
2023-01-09T11:22:36.721Z,154.83
2023-01-09T11:23:37.002Z,133.61
2023-01-09T11:24:36.240Z,125.99
2023-01-09T11:25:36.476Z,129.75
2023-01-09T11:26:36.773Z,128.80
2023-01-09T11:27:36.047Z,134.02
2023-01-09T11:28:36.302Z,148.67
2023-01-09T11:29:36.626Z,146.68
2023-01-09T11:30:36.856Z,160.50
2023-01-09T11:31:36.160Z,150.16
2023-01-09T11:32:36.494Z,131.94
2023-01-09T11:33:36.646Z,131.92
2023-01-09T11:34:37.107Z,139.43
2023-01-09T11:35:36.157Z,139.36
2023-01-09T11:36:36.443Z,142.07
2023-01-09T11:37:37.596Z,148.64
2023-01-09T11:38:36.842Z,151.09
2023-01-09T11:39:37.122Z,142.07
2023-01-09T11:40:36.738Z,133.93
2023-01-09T11:41:37.647Z,121.53
2023-01-09T11:42:36.867Z,116.56
2023-01-09T11:43:37.127Z,107.88
2023-01-09T11:44:37.386Z,116.23
2023-01-09T11:45:36.697Z,122.98
2023-01-09T11:46:35.999Z,117.71
2023-01-09T11:47:36.138Z,120.17
2023-01-09T11:48:36.409Z,132.34
2023-01-09T11:49:36.657Z,136.41
2023-01-09T11:50:35.865Z,122.86
2023-01-09T11:51:36.120Z,111.23
2023-01-09T11:52:36.387Z,91.97
2023-01-09T11:53:36.583Z,79.06
2023-01-09T11:54:35.806Z,77.57
2023-01-09T11:55:42.366Z,81.91
2023-01-09T11:56:37.447Z,72.79
2023-01-09T11:57:37.497Z,62.23
2023-01-09T11:58:35.758Z,62.87
2023-01-09T11:59:36.023Z,61.70
2023-01-09T12:00:36.272Z,58.82
2023-01-09T12:01:36.592Z,61.15
2023-01-09T12:02:35.773Z,67.62
2023-01-09T12:03:36.004Z,73.53
2023-01-09T12:04:36.256Z,72.18
2023-01-09T12:05:36.496Z,72.29
2023-01-09T12:06:35.735Z,78.62
2023-01-09T12:07:36.039Z,88.25
2023-01-09T12:08:36.266Z,93.42
2023-01-09T12:09:35.463Z,94.87
2023-01-09T12:10:35.728Z,95.20
2023-01-09T12:11:35.966Z,93.15
2023-01-09T12:12:36.224Z,94.07
2023-01-09T12:13:35.417Z,93.36
2023-01-09T12:14:35.652Z,93.84
2023-01-09T12:15:35.917Z,89.66
2023-01-09T12:16:36.215Z,85.78
2023-01-09T12:17:35.367Z,88.70
2023-01-09T12:18:35.645Z,96.96
2023-01-09T12:19:36.796Z,107.43
2023-01-09T12:20:37.082Z,117.14
2023-01-09T12:21:36.312Z,126.03
2023-01-09T12:22:36.561Z,127.86
2023-01-09T12:23:35.882Z,122.32
2023-01-09T12:24:36.155Z,124.31
2023-01-09T12:25:35.401Z,123.37
2023-01-09T12:26:36.601Z,123.47
2023-01-09T12:27:35.926Z,127.16
2023-01-09T12:28:36.204Z,136.75
2023-01-09T12:29:35.432Z,144.39
2023-01-09T12:30:36.681Z,145.85
2023-01-09T12:31:37.149Z,144.47
2023-01-09T12:32:35.711Z,141.95
2023-01-09T12:33:37.629Z,140.56
2023-01-09T12:34:35.778Z,140.44
2023-01-09T12:35:36.360Z,139.13
2023-01-09T12:36:35.323Z,139.22
2023-01-09T12:37:35.572Z,141.29
2023-01-09T12:38:35.892Z,146.74
2023-01-09T12:39:35.172Z,150.53
2023-01-09T12:40:35.385Z,159.63
2023-01-09T12:41:35.676Z,163.70
2023-01-09T12:42:36.050Z,166.80
2023-01-09T12:43:35.187Z,162.73
2023-01-09T12:44:36.518Z,149.37
2023-01-09T12:45:35.842Z,129.45
2023-01-09T12:46:35.049Z,115.58
2023-01-09T12:47:35.331Z,103.26
2023-01-09T12:48:35.600Z,94.32
2023-01-09T12:49:35.924Z,84.39
2023-01-09T12:50:35.170Z,77.77
2023-01-09T12:51:35.428Z,72.30
2023-01-09T12:52:36.687Z,68.21
2023-01-09T12:53:34.945Z,76.22
2023-01-09T12:54:35.210Z,85.38
2023-01-09T12:55:35.893Z,91.23
2023-01-09T12:56:35.761Z,102.06
2023-01-09T12:57:35.029Z,117.08
2023-01-09T12:58:35.289Z,130.91
2023-01-09T12:59:35.577Z,143.54
2023-01-09T13:00:34.807Z,149.77